OKBK/KWI METAR and TAF weather

Enter ICAO airport designator
Station Type Date Time Source
OKBK METAR 2018/12/17 16:00 UTC NOAA

OKBK 171600Z 14011KT CAVOK 19/15 Q1019 NOSIG


Station Type Date Time Source
OKBK Decoded METAR 2018/12/17 16:00 UTC NOAA

Kuwait Internationalairport, Kuwait (OKBK) 29-13N 047-59E 55M
Dec 17, 2018 - 11:00 AM EST / 2018.12.17 1600 UTC
Wind: from the SE (140 degrees) at 13 MPH (11 KT):0
Visibility: greater than 7 mile(s):0
Temperature: 66 F (19 C)
Dew Point: 59 F (15 C)
Relative Humidity: 77%
Pressure (altimeter): 30.09 in. Hg (1019 hPa)
ob: OKBK 171600Z 14011KT CAVOK 19/15 Q1019 NOSIG
cycle: 16

Station Type Date Time Source
OKBK TAF 2018/12/17 12:54 UTC NOAA

TAF TAF OKBK 171045Z 1712/1818 17008G18KT 7000 FEW030 BKN080
TEMPO 1721/1806 VRB03KT 3000 RA/BR


Example: see airport list